sensor_id;sensor_type;location;lat;lon;timestamp;P1;P2;P0
58740;PMS7003;44512;53.046;18.604;2023-05-02T00:04:47;13;11;8
58740;PMS7003;44512;53.046;18.604;2023-05-02T00:15:15;15;12;10
58740;PMS7003;44512;53.046;18.604;2023-05-02T00:25:44;16;12;9
58740;PMS7003;44512;53.046;18.604;2023-05-02T00:36:13;14;12;9
58740;PMS7003;44512;53.046;18.604;2023-05-02T00:46:40;14;10;8
58740;PMS7003;44512;53.046;18.604;2023-05-02T00:57:09;12;10;8
58740;PMS7003;44512;53.046;18.604;2023-05-02T01:18:08;14;12;8
58740;PMS7003;44512;53.046;18.604;2023-05-02T01:39:02;8;6;4
58740;PMS7003;44512;53.046;18.604;2023-05-02T01:49:32;9;9;7
58740;PMS7003;44512;53.046;18.604;2023-05-02T01:59:59;11;10;7
58740;PMS7003;44512;53.046;18.604;2023-05-02T02:10:28;15;12;9
58740;PMS7003;44512;53.046;18.604;2023-05-02T02:20:56;12;11;9
58740;PMS7003;44512;53.046;18.604;2023-05-02T02:31:29;12;10;8
58740;PMS7003;44512;53.046;18.604;2023-05-02T02:41:57;14;8;7
58740;PMS7003;44512;53.046;18.604;2023-05-02T03:02:49;11;8;6
58740;PMS7003;44512;53.046;18.604;2023-05-02T03:13:18;11;8;7
58740;PMS7003;44512;53.046;18.604;2023-05-02T03:23:46;11;10;8
58740;PMS7003;44512;53.046;18.604;2023-05-02T03:34:14;9;8;6
58740;PMS7003;44512;53.046;18.604;2023-05-02T03:44:43;15;7;6
58740;PMS7003;44512;53.046;18.604;2023-05-02T03:55:11;9;8;7
58740;PMS7003;44512;53.046;18.604;2023-05-02T04:05:39;8;7;6
58740;PMS7003;44512;53.046;18.604;2023-05-02T04:16:08;10;8;6
58740;PMS7003;44512;53.046;18.604;2023-05-02T04:26:36;12;9;7
58740;PMS7003;44512;53.046;18.604;2023-05-02T04:37:04;14;12;9
58740;PMS7003;44512;53.046;18.604;2023-05-02T04:47:33;11;10;8
58740;PMS7003;44512;53.046;18.604;2023-05-02T04:58:01;10;7;5
58740;PMS7003;44512;53.046;18.604;2023-05-02T05:08:29;12;10;8
58740;PMS7003;44512;53.046;18.604;2023-05-02T05:18:58;13;11;8
58740;PMS7003;44512;53.046;18.604;2023-05-02T05:29:26;14;12;10
58740;PMS7003;44512;53.046;18.604;2023-05-02T05:39:55;15;9;7
58740;PMS7003;44512;53.046;18.604;2023-05-02T05:50:23;13;12;9
58740;PMS7003;44512;53.046;18.604;2023-05-02T06:00:51;14;12;9
58740;PMS7003;44512;53.046;18.604;2023-05-02T06:11:20;16;14;10
58740;PMS7003;44512;53.046;18.604;2023-05-02T06:21:48;20;16;12
58740;PMS7003;44512;53.046;18.604;2023-05-02T06:32:17;22;17;13
58740;PMS7003;44512;53.046;18.604;2023-05-02T06:42:45;18;17;14
58740;PMS7003;44512;53.046;18.604;2023-05-02T06:53:13;17;16;13
58740;PMS7003;44512;53.046;18.604;2023-05-02T07:03:42;23;17;14
58740;PMS7003;44512;53.046;18.604;2023-05-02T07:14:10;22;18;14
58740;PMS7003;44512;53.046;18.604;2023-05-02T07:24:39;25;19;16
58740;PMS7003;44512;53.046;18.604;2023-05-02T07:35:07;22;20;14
58740;PMS7003;44512;53.046;18.604;2023-05-02T07:45:35;26;23;16
58740;PMS7003;44512;53.046;18.604;2023-05-02T07:56:04;21;15;12
58740;PMS7003;44512;53.046;18.604;2023-05-02T08:06:32;20;18;14
58740;PMS7003;44512;53.046;18.604;2023-05-02T08:17:00;18;16;12
58740;PMS7003;44512;53.046;18.604;2023-05-02T08:27:29;25;22;16
58740;PMS7003;44512;53.046;18.604;2023-05-02T08:37:57;22;19;14
58740;PMS7003;44512;53.046;18.604;2023-05-02T08:48:25;19;19;14
58740;PMS7003;44512;53.046;18.604;2023-05-02T08:58:54;18;16;13
58740;PMS7003;44512;53.046;18.604;2023-05-02T09:09:22;18;16;12
58740;PMS7003;44512;53.046;18.604;2023-05-02T09:19:58;13;13;11
58740;PMS7003;44512;53.046;18.604;2023-05-02T09:30:23;13;10;7
58740;PMS7003;44512;53.046;18.604;2023-05-02T09:51:16;6;6;5
58740;PMS7003;44512;53.046;18.604;2023-05-02T10:01:44;8;7;5
58740;PMS7003;44512;53.046;18.604;2023-05-02T10:12:13;7;6;5
58740;PMS7003;44512;53.046;18.604;2023-05-02T10:22:41;5;4;3
58740;PMS7003;44512;53.046;18.604;2023-05-02T10:33:09;5;4;3
58740;PMS7003;44512;53.046;18.604;2023-05-02T10:43:38;5;5;4
58740;PMS7003;44512;53.046;18.604;2023-05-02T11:15:03;7;4;4
58740;PMS7003;44512;53.046;18.604;2023-05-02T11:25:32;4;4;3
58740;PMS7003;44512;53.046;18.604;2023-05-02T11:35:59;6;5;4
58740;PMS7003;44512;53.046;18.604;2023-05-02T11:46:28;7;5;4
58740;PMS7003;44512;53.046;18.604;2023-05-02T11:56:56;9;6;4
58740;PMS7003;44512;53.046;18.604;2023-05-02T12:17:53;6;6;4
58740;PMS7003;44512;53.046;18.604;2023-05-02T12:28:21;7;6;5
58740;PMS7003;44512;53.046;18.604;2023-05-02T12:38:56;8;6;6
58740;PMS7003;44512;53.046;18.604;2023-05-02T12:49:18;8;7;6
58740;PMS7003;44512;53.046;18.604;2023-05-02T12:59:46;13;8;7
58740;PMS7003;44512;53.046;18.604;2023-05-02T13:10:15;7;7;6
58740;PMS7003;44512;53.046;18.604;2023-05-02T13:20:43;6;5;3
58740;PMS7003;44512;53.046;18.604;2023-05-02T13:31:11;4;3;3
58740;PMS7003;44512;53.046;18.604;2023-05-02T13:41:40;5;5;4
58740;PMS7003;44512;53.046;18.604;2023-05-02T13:52:08;7;7;6
58740;PMS7003;44512;53.046;18.604;2023-05-02T14:02:37;6;4;4
58740;PMS7003;44512;53.046;18.604;2023-05-02T14:13:04;7;6;4
58740;PMS7003;44512;53.046;18.604;2023-05-02T14:23:33;6;5;4
58740;PMS7003;44512;53.046;18.604;2023-05-02T14:34:01;8;7;6
58740;PMS7003;44512;53.046;18.604;2023-05-02T14:49:45;9;7;6
58740;PMS7003;44512;53.046;18.604;2023-05-02T15:00:14;3;3;3
58740;PMS7003;44512;53.046;18.604;2023-05-02T15:10:42;2;2;2
58740;PMS7003;44512;53.046;18.604;2023-05-02T15:21:10;3;2;2
58740;PMS7003;44512;53.046;18.604;2023-05-02T15:31:38;2;2;1
58740;PMS7003;44512;53.046;18.604;2023-05-02T15:42:07;1;1;1
58740;PMS7003;44512;53.046;18.604;2023-05-02T15:52:35;2;2;1
58740;PMS7003;44512;53.046;18.604;2023-05-02T16:03:03;2;1;1
58740;PMS7003;44512;53.046;18.604;2023-05-02T16:13:32;1;0;0
58740;PMS7003;44512;53.046;18.604;2023-05-02T16:24:00;1;1;1
58740;PMS7003;44512;53.046;18.604;2023-05-02T16:34:30;1;1;1
58740;PMS7003;44512;53.046;18.604;2023-05-02T16:44:57;2;2;1
58740;PMS7003;44512;53.046;18.604;2023-05-02T16:55:25;2;2;1
58740;PMS7003;44512;53.046;18.604;2023-05-02T17:05:56;2;2;2
58740;PMS7003;44512;53.046;18.604;2023-05-02T17:16:22;2;1;1
58740;PMS7003;44512;53.046;18.604;2023-05-02T17:26:50;2;2;1
58740;PMS7003;44512;53.046;18.604;2023-05-02T17:37:18;2;1;1
58740;PMS7003;44512;53.046;18.604;2023-05-02T17:47:47;2;2;1
58740;PMS7003;44512;53.046;18.604;2023-05-02T17:58:15;1;1;0
58740;PMS7003;44512;53.046;18.604;2023-05-02T18:08:44;3;2;1
58740;PMS7003;44512;53.046;18.604;2023-05-02T18:19:12;2;2;2
58740;PMS7003;44512;53.046;18.604;2023-05-02T18:29:40;2;2;1
58740;PMS7003;44512;53.046;18.604;2023-05-02T18:40:09;2;1;1
58740;PMS7003;44512;53.046;18.604;2023-05-02T18:50:37;3;2;2
58740;PMS7003;44512;53.046;18.604;2023-05-02T19:11:34;5;4;4
58740;PMS7003;44512;53.046;18.604;2023-05-02T19:22:02;8;5;4
58740;PMS7003;44512;53.046;18.604;2023-05-02T19:32:30;5;4;3
58740;PMS7003;44512;53.046;18.604;2023-05-02T19:42:58;6;5;4
58740;PMS7003;44512;53.046;18.604;2023-05-02T19:53:27;6;5;4
58740;PMS7003;44512;53.046;18.604;2023-05-02T20:03:56;5;4;3
58740;PMS7003;44512;53.046;18.604;2023-05-02T20:14:24;8;4;3
58740;PMS7003;44512;53.046;18.604;2023-05-02T20:24:52;8;4;3
58740;PMS7003;44512;53.046;18.604;2023-05-02T20:35:20;5;4;3
58740;PMS7003;44512;53.046;18.604;2023-05-02T20:45:49;6;5;3
58740;PMS7003;44512;53.046;18.604;2023-05-02T20:56:17;4;4;3
58740;PMS7003;44512;53.046;18.604;2023-05-02T21:06:45;4;3;2
58740;PMS7003;44512;53.046;18.604;2023-05-02T21:17:14;4;4;3
58740;PMS7003;44512;53.046;18.604;2023-05-02T21:27:42;5;3;3
58740;PMS7003;44512;53.046;18.604;2023-05-02T21:38:11;4;4;3
58740;PMS7003;44512;53.046;18.604;2023-05-02T21:48:39;5;4;3
58740;PMS7003;44512;53.046;18.604;2023-05-02T21:59:07;7;5;4
58740;PMS7003;44512;53.046;18.604;2023-05-02T22:09:36;6;5;3
58740;PMS7003;44512;53.046;18.604;2023-05-02T22:20:04;6;4;3
58740;PMS7003;44512;53.046;18.604;2023-05-02T22:30:32;4;4;4
58740;PMS7003;44512;53.046;18.604;2023-05-02T22:41:01;4;4;3
58740;PMS7003;44512;53.046;18.604;2023-05-02T22:51:29;7;4;3
58740;PMS7003;44512;53.046;18.604;2023-05-02T23:01:58;6;5;4
58740;PMS7003;44512;53.046;18.604;2023-05-02T23:12:26;5;5;3
58740;PMS7003;44512;53.046;18.604;2023-05-02T23:22:54;9;8;5
58740;PMS7003;44512;53.046;18.604;2023-05-02T23:33:23;7;7;5
58740;PMS7003;44512;53.046;18.604;2023-05-02T23:43:51;8;8;6
58740;PMS7003;44512;53.046;18.604;2023-05-02T23:54:19;10;8;5
